Terminal Aerodrome Forecast
Issued by NWS

Home | Current Version | Previous Version | Text Only | Print | Product List | Glossary On
Versions: 1 2 3 4 5 6 7 8 9 10 11 12 13 14 15 16 17 18 19 20
000
FTUS43 KILX 201700
TAFDEC
TAF
KDEC 201738Z 2018/2118 22008KT P6SM SCT050 OVC120
      TEMPO 2018/2020 6SM -RA
     FM202000 23008KT P6SM SCT120 BKN250
     FM210000 18005KT P6SM SCT120 BKN250
     FM211400 22009KT P6SM SCT050=

USA.gov is the U.S. government's official web portal to all federal, state and local government web resources and services.